Time;durP1;ratioP1;P1;durP2;ratioP2;P2;SDS_P1;SDS_P2;PMS_P1;PMS_P2;Temp;Humidity;BMP_temperature;BMP_pressure;BME280_temperature;BME280_humidity;BME280_pressure;Samples;Min_cycle;Max_cycle;Signal;HPM_P1;HPM_P2
2022/01/29 00:01:36;;;;;;;;;;;;;;;10.36;85.34;101925.41;6283098;22;20387;-75
2022/01/29 00:04:01;;;;;;;;;;;;;;;10.33;85.18;101928.56;6255807;22;20229;-75
2022/01/29 00:06:27;;;;;;;;;;;;;;;10.35;85.22;101921.00;6280909;22;19903;-76
2022/01/29 00:08:55;;;;;;;;;;;;;;;10.38;85.53;101926.00;6250995;23;19950;-75
2022/01/29 00:11:28;;;;;;;;;;;;;;;10.36;85.42;101914.47;6251823;23;19911;-76
2022/01/29 00:13:54;;;;;;;;;;;;;;;10.35;85.39;101918.25;6252107;23;19911;-74
2022/01/29 00:16:19;;;;;;;;;;;;;;;10.29;85.74;101912.63;6251418;23;19908;-77
2022/01/29 00:18:47;;;;;;;;;;;;;;;10.30;85.99;101914.28;6226517;23;19907;-77
2022/01/29 00:21:21;;;;;;;;;;;;;;;10.33;86.08;101910.25;6253849;22;19951;-79
2022/01/29 00:23:47;;;;;;;;;;;;;;;10.41;85.49;101903.66;6227880;23;19914;-78
2022/01/29 00:26:21;;;;;;;;;;;;;;;10.39;85.98;101894.88;6252876;23;19955;-78
2022/01/29 00:28:51;;;;;;;;;;;;;;;10.47;85.33;101897.31;6251618;23;19967;-75
2022/01/29 00:31:16;;;;;;;;;;;;;;;10.44;85.67;101903.22;6251639;23;20318;-76
2022/01/29 00:33:42;;;;;;;;;;;;;;;10.45;85.34;101893.94;6253590;22;19911;-76
2022/01/29 00:51:22;;;;;;;;;;;;;;;10.57;85.34;101894.00;6254122;23;19929;-74
2022/01/29 00:53:54;;;;;;;;;;;;;;;10.58;85.86;101887.47;6253782;23;20311;-77
2022/01/29 00:56:22;;;;;;;;;;;;;;;10.58;85.74;101877.38;6252672;23;19915;-77
2022/01/29 00:58:47;;;;;;;;;;;;;;;10.56;85.19;101884.97;6253813;23;19910;-76
2022/01/29 01:01:13;;;;;;;;;;;;;;;10.56;85.55;101878.69;6253197;22;19986;-78
2022/01/29 01:03:38;;;;;;;;;;;;;;;10.58;85.44;101879.28;6248995;23;19904;-79
2022/01/29 01:06:03;;;;;;;;;;;;;;;10.56;85.75;101871.31;6241525;23;19966;-79
2022/01/29 01:08:29;;;;;;;;;;;;;;;10.55;85.33;101872.34;6252958;22;19941;-80
2022/01/29 01:10:55;;;;;;;;;;;;;;;10.51;85.36;101871.16;6276691;22;19934;-74
2022/01/29 01:13:23;;;;;;;;;;;;;;;10.55;85.27;101869.63;6245119;22;19903;-73
2022/01/29 01:15:56;;;;;;;;;;;;;;;10.61;85.35;101876.91;6273199;22;19910;-81
2022/01/29 01:18:21;;;;;;;;;;;;;;;10.62;84.92;101878.59;6272181;22;19907;-74
2022/01/29 01:20:54;;;;;;;;;;;;;;;10.64;85.71;101873.72;6247641;22;19941;-74
2022/01/29 01:23:21;;;;;;;;;;;;;;;10.65;85.61;101867.16;6273207;22;19938;-73
2022/01/29 01:25:47;;;;;;;;;;;;;;;10.58;85.37;101865.59;6274890;22;19993;-76
2022/01/29 01:28:13;;;;;;;;;;;;;;;10.46;85.45;101862.81;6246182;22;19911;-74
2022/01/29 01:30:41;;;;;;;;;;;;;;;10.45;85.70;101862.00;6271696;22;19910;-73
2022/01/29 01:33:06;;;;;;;;;;;;;;;10.44;85.85;101853.97;6246283;22;20340;-73
2022/01/29 01:38:35;;;;;;;;;;;;;;;10.40;85.85;101852.81;6203815;22;19957;-71
2022/01/29 01:41:06;;;;;;;;;;;;;;;10.38;86.58;101849.44;6248725;22;19907;-73
2022/01/29 01:43:31;;;;;;;;;;;;;;;10.29;86.24;101852.47;6247350;22;19981;-72
2022/01/29 01:45:56;;;;;;;;;;;;;;;10.25;86.90;101856.72;6277682;22;20324;-71
2022/01/29 01:48:22;;;;;;;;;;;;;;;10.25;86.77;101844.94;6265069;22;19907;-74
2022/01/29 01:50:49;;;;;;;;;;;;;;;10.30;86.73;101842.38;6267443;22;19907;-74
2022/01/29 01:53:14;;;;;;;;;;;;;;;10.29;87.05;101852.47;6261263;22;19937;-72
2022/01/29 01:55:41;;;;;;;;;;;;;;;10.30;86.97;101843.19;6273242;22;19907;-73
2022/01/29 01:58:09;;;;;;;;;;;;;;;10.29;86.67;101847.00;6277642;22;19903;-73
2022/01/29 02:00:35;;;;;;;;;;;;;;;10.26;86.79;101847.44;6250971;22;19903;-73
2022/01/29 02:03:00;;;;;;;;;;;;;;;10.27;87.30;101843.66;6276687;22;19939;-74
2022/01/29 02:05:25;;;;;;;;;;;;;;;10.22;87.03;101846.25;6225332;22;19907;-73
2022/01/29 02:07:51;;;;;;;;;;;;;;;10.20;87.26;101848.38;6276028;22;19911;-73
2022/01/29 02:10:18;;;;;;;;;;;;;;;10.21;87.13;101846.47;6224801;22;19915;-72
2022/01/29 02:12:56;;;;;;;;;;;;;;;10.25;87.50;101840.31;6224338;22;20283;-72
2022/01/29 02:15:22;;;;;;;;;;;;;;;10.25;87.56;101842.19;6275784;22;20301;-74
2022/01/29 02:17:47;;;;;;;;;;;;;;;10.24;87.42;101849.59;6250879;22;19947;-72
2022/01/29 02:20:14;;;;;;;;;;;;;;;10.26;87.25;101841.97;6246358;22;19911;-73
2022/01/29 02:22:41;;;;;;;;;;;;;;;10.18;87.58;101839.56;6250207;22;19903;-73
2022/01/29 02:25:06;;;;;;;;;;;;;;;10.23;87.34;101836.97;6276544;22;20420;-73
2022/01/29 02:27:31;;;;;;;;;;;;;;;10.20;87.07;101837.44;6224671;22;20324;-73
2022/01/29 02:29:58;;;;;;;;;;;;;;;10.25;87.28;101847.66;6246648;22;19938;-74
2022/01/29 02:32:24;;;;;;;;;;;;;;;10.21;87.59;101832.81;6249804;22;19934;-73
2022/01/29 02:34:49;;;;;;;;;;;;;;;10.23;87.44;101831.50;6274872;22;19903;-72
2022/01/29 02:37:14;;;;;;;;;;;;;;;10.25;87.09;101829.38;6277409;22;19907;-71
2022/01/29 02:39:40;;;;;;;;;;;;;;;10.24;87.53;101827.72;6224956;22;20298;-72
2022/01/29 02:42:05;;;;;;;;;;;;;;;10.25;87.09;101832.13;6276589;22;19903;-72
2022/01/29 02:44:31;;;;;;;;;;;;;;;10.20;86.99;101831.97;6249783;22;19981;-72
2022/01/29 02:47:13;;;;;;;;;;;;;;;10.18;87.54;101822.31;6278095;22;20315;-73
2022/01/29 02:49:38;;;;;;;;;;;;;;;10.19;87.61;101827.56;6225310;22;19907;-73
2022/01/29 02:52:04;;;;;;;;;;;;;;;10.20;87.58;101826.50;6223031;22;19986;-73
2022/01/29 02:54:34;;;;;;;;;;;;;;;10.15;87.46;101818.16;6249464;22;19925;-73
2022/01/29 02:56:59;;;;;;;;;;;;;;;10.21;87.39;101819.16;6272690;22;19913;-72
2022/01/29 02:59:25;;;;;;;;;;;;;;;10.21;87.45;101819.97;6255940;22;19982;-77
2022/01/29 03:01:50;;;;;;;;;;;;;;;10.28;87.13;101811.69;6249053;22;19935;-76
2022/01/29 03:04:15;;;;;;;;;;;;;;;10.27;86.83;101802.63;6278733;22;19914;-75
2022/01/29 03:06:43;;;;;;;;;;;;;;;10.29;86.95;101803.25;6257780;22;20401;-75
2022/01/29 03:09:09;;;;;;;;;;;;;;;10.25;87.12;101802.06;6288742;22;19919;-76
2022/01/29 03:11:34;;;;;;;;;;;;;;;10.23;87.02;101804.16;6286137;22;20319;-76
2022/01/29 03:14:00;;;;;;;;;;;;;;;10.20;86.82;101796.41;6287219;22;19903;-76
2022/01/29 03:16:25;;;;;;;;;;;;;;;10.19;87.14;101785.72;6282473;22;19984;-76
2022/01/29 03:18:50;;;;;;;;;;;;;;;10.24;87.32;101791.34;6285065;22;19980;-75
2022/01/29 03:21:16;;;;;;;;;;;;;;;10.22;87.24;101791.56;6284710;22;20371;-75
2022/01/29 03:23:41;;;;;;;;;;;;;;;10.17;87.25;101794.16;6259011;22;19903;-76
2022/01/29 03:26:07;;;;;;;;;;;;;;;10.10;87.78;101785.19;6286228;22;19907;-76
2022/01/29 03:28:32;;;;;;;;;;;;;;;10.11;87.90;101784.16;6284418;22;20272;-77
2022/01/29 03:30:57;;;;;;;;;;;;;;;10.04;88.56;101781.47;6285513;22;19952;-76
2022/01/29 03:33:23;;;;;;;;;;;;;;;9.98;88.71;101784.31;6258993;22;19933;-77
2022/01/29 03:35:48;;;;;;;;;;;;;;;9.95;88.92;101780.97;6282552;22;19907;-76
2022/01/29 03:38:16;;;;;;;;;;;;;;;10.00;88.87;101777.53;6292464;22;19929;-76
2022/01/29 03:40:43;;;;;;;;;;;;;;;9.93;89.58;101771.34;6294659;22;19926;-76
2022/01/29 03:43:12;;;;;;;;;;;;;;;9.92;89.78;101778.69;6286553;22;20029;-77
2022/01/29 03:45:37;;;;;;;;;;;;;;;10.01;89.09;101770.19;6282307;22;19903;-77
2022/01/29 03:48:08;;;;;;;;;;;;;;;9.95;89.55;101775.50;6252951;22;19907;-77
2022/01/29 03:50:34;;;;;;;;;;;;;;;10.04;89.57;101780.66;6278961;22;19934;-75
2022/01/29 03:52:59;;;;;;;;;;;;;;;10.04;89.31;101762.34;6251892;22;20310;-76
2022/01/29 03:55:27;;;;;;;;;;;;;;;10.05;89.18;101768.66;6253338;22;20325;-76
2022/01/29 03:57:52;;;;;;;;;;;;;;;10.04;89.19;101756.06;6278356;22;19985;-76
2022/01/29 04:00:25;;;;;;;;;;;;;;;10.05;89.07;101763.19;6278611;22;19903;-77
2022/01/29 04:02:52;;;;;;;;;;;;;;;10.06;89.48;101759.38;6279974;22;20302;-77
2022/01/29 04:05:18;;;;;;;;;;;;;;;10.01;89.77;101756.53;6250481;22;19945;-76
2022/01/29 04:07:43;;;;;;;;;;;;;;;10.10;89.23;101749.66;6248567;22;19903;-78
2022/01/29 04:10:08;;;;;;;;;;;;;;;10.11;89.27;101756.81;6250502;22;19911;-77
2022/01/29 04:12:42;;;;;;;;;;;;;;;10.11;88.98;101743.16;6277020;22;19911;-75
2022/01/29 04:15:10;;;;;;;;;;;;;;;10.18;89.26;101752.09;6275897;22;19903;-76
2022/01/29 04:17:38;;;;;;;;;;;;;;;10.16;88.64;101758.84;6271464;22;19914;-77
2022/01/29 04:20:15;;;;;;;;;;;;;;;10.19;89.03;101767.44;6288481;22;19943;-78
2022/01/29 04:22:40;;;;;;;;;;;;;;;10.16;88.78;101753.38;6256158;22;19903;-78
2022/01/29 04:25:06;;;;;;;;;;;;;;;10.01;88.97;101751.06;6279285;22;19903;-74
2022/01/29 04:27:39;;;;;;;;;;;;;;;10.06;89.10;101743.00;6273101;22;19910;-75
2022/01/29 04:30:10;;;;;;;;;;;;;;;10.07;89.16;101741.94;6247706;22;19961;-74
2022/01/29 04:35:04;;;;;;;;;;;;;;;10.05;89.37;101735.88;6246695;22;19986;-74
2022/01/29 04:37:29;;;;;;;;;;;;;;;10.02;89.58;101742.63;6245619;22;19938;-75
2022/01/29 04:39:54;;;;;;;;;;;;;;;10.04;89.46;101751.41;6246007;22;19914;-74
2022/01/29 04:42:19;;;;;;;;;;;;;;;10.07;89.51;101756.41;6273607;22;19911;-76
2022/01/29 04:44:45;;;;;;;;;;;;;;;10.06;88.97;101745.72;6247005;22;19990;-75
2022/01/29 04:47:10;;;;;;;;;;;;;;;10.06;89.03;101738.38;6274097;22;19994;-73
2022/01/29 04:49:35;;;;;;;;;;;;;;;10.04;88.57;101737.75;6273048;22;19911;-74
2022/01/29 04:52:01;;;;;;;;;;;;;;;10.08;88.81;101730.75;6246484;22;19934;-74
2022/01/29 04:54:26;;;;;;;;;;;;;;;10.04;88.96;101750.59;6272356;22;19907;-74
2022/01/29 04:56:51;;;;;;;;;;;;;;;10.05;88.53;101735.88;6222632;22;20310;-74
2022/01/29 04:59:16;;;;;;;;;;;;;;;10.08;88.57;101735.41;6272383;22;20321;-74
2022/01/29 05:01:42;;;;;;;;;;;;;;;10.19;88.46;101718.22;6272849;22;20314;-73
2022/01/29 05:04:09;;;;;;;;;;;;;;;10.20;88.19;101728.09;6245403;22;19907;-74
2022/01/29 05:06:35;;;;;;;;;;;;;;;10.19;87.79;101723.69;6247527;22;19918;-75
2022/01/29 05:09:00;;;;;;;;;;;;;;;10.13;88.36;101716.41;6246189;22;19915;-75
2022/01/29 05:11:28;;;;;;;;;;;;;;;10.11;87.84;101713.91;6244884;22;20004;-75
2022/01/29 05:13:54;;;;;;;;;;;;;;;10.11;88.13;101704.88;6273611;22;19911;-75
2022/01/29 05:16:54;;;;;;;;;;;;;;;10.16;87.77;101699.53;6221294;22;19983;-74
2022/01/29 05:26:50;;;;;;;;;;;;;;;10.10;87.72;101717.72;6249719;22;20230;-74
2022/01/29 05:27:47;;;;;;;;;;;;;;;10.09;87.02;101715.19;6274474;22;19914;-74
2022/01/29 05:30:13;;;;;;;;;;;;;;;10.07;87.15;101704.50;6247692;22;20289;-75
2022/01/29 05:32:38;;;;;;;;;;;;;;;10.09;86.60;101718.78;6219535;22;20002;-75
2022/01/29 05:35:04;;;;;;;;;;;;;;;10.10;85.95;101705.94;6247783;22;19913;-75
2022/01/29 05:37:29;;;;;;;;;;;;;;;10.13;85.99;101709.06;6262209;22;19895;-76
2022/01/29 05:39:54;;;;;;;;;;;;;;;10.20;85.14;101708.94;6297534;22;19907;-75
2022/01/29 05:42:19;;;;;;;;;;;;;;;10.22;85.05;101720.50;6262726;22;19933;-75
2022/01/29 05:44:45;;;;;;;;;;;;;;;10.27;84.47;101717.88;6246790;22;19911;-75
2022/01/29 05:47:10;;;;;;;;;;;;;;;10.27;84.71;101712.41;6247569;22;19935;-75
2022/01/29 05:49:35;;;;;;;;;;;;;;;10.30;84.26;101711.94;6273780;22;20032;-75
2022/01/29 05:52:03;;;;;;;;;;;;;;;10.29;83.81;101721.25;6221686;22;19912;-74
2022/01/29 05:54:28;;;;;;;;;;;;;;;10.32;83.96;101714.44;6271111;22;19914;-75
2022/01/29 05:56:53;;;;;;;;;;;;;;;10.36;83.43;101714.88;6247891;22;20277;-75
2022/01/29 05:59:19;;;;;;;;;;;;;;;10.38;83.38;101720.91;6274251;22;19930;-75
2022/01/29 06:01:44;;;;;;;;;;;;;;;10.36;83.23;101709.41;6272070;22;20340;-75
2022/01/29 06:04:09;;;;;;;;;;;;;;;10.42;83.17;101724.88;6247993;22;19903;-76
2022/01/29 06:06:35;;;;;;;;;;;;;;;10.35;83.28;101729.59;6271493;22;20246;-75
2022/01/29 06:09:04;;;;;;;;;;;;;;;10.34;83.91;101736.13;6273079;22;20246;-75
2022/01/29 06:11:29;;;;;;;;;;;;;;;10.35;83.45;101729.59;6274058;22;19914;-75
2022/01/29 06:13:55;;;;;;;;;;;;;;;10.39;83.18;101719.88;6272699;22;19907;-75
2022/01/29 06:16:20;;;;;;;;;;;;;;;10.37;83.06;101717.38;6246717;22;19914;-76
2022/01/29 06:18:45;;;;;;;;;;;;;;;10.49;82.61;101714.66;6272426;22;19910;-76
2022/01/29 06:21:13;;;;;;;;;;;;;;;10.51;82.77;101717.16;6246840;22;19965;-76
2022/01/29 06:23:39;;;;;;;;;;;;;;;10.48;82.79;101724.78;6272926;22;20238;-76
2022/01/29 06:26:05;;;;;;;;;;;;;;;10.57;82.17;101725.28;6272672;22;19903;-75
2022/01/29 06:28:31;;;;;;;;;;;;;;;10.49;82.24;101725.59;6273911;22;19961;-76
2022/01/29 06:30:56;;;;;;;;;;;;;;;10.47;82.39;101727.75;6247023;22;20260;-74
2022/01/29 06:33:22;;;;;;;;;;;;;;;10.47;82.51;101717.63;6273855;22;20348;-75
2022/01/29 06:35:47;;;;;;;;;;;;;;;10.49;82.47;101717.41;6273837;22;19903;-75
2022/01/29 06:38:13;;;;;;;;;;;;;;;10.55;81.74;101724.66;6274673;22;19913;-75
2022/01/29 06:40:39;;;;;;;;;;;;;;;10.60;81.68;101713.00;6275676;22;19907;-74
2022/01/29 06:43:05;;;;;;;;;;;;;;;10.57;81.57;101722.53;6246440;22;20375;-76
2022/01/29 06:45:31;;;;;;;;;;;;;;;10.49;81.82;101722.88;6274133;22;19907;-74
2022/01/29 06:48:00;;;;;;;;;;;;;;;10.59;81.82;101731.34;6273843;22;20295;-74
2022/01/29 06:50:26;;;;;;;;;;;;;;;10.70;81.40;101737.06;6274503;22;20313;-74
2022/01/29 06:52:51;;;;;;;;;;;;;;;10.69;81.13;101725.31;6247847;22;19911;-74
2022/01/29 06:55:17;;;;;;;;;;;;;;;10.72;80.82;101723.97;6246635;22;20340;-74
2022/01/29 06:57:42;;;;;;;;;;;;;;;10.73;80.55;101722.91;6273579;22;20368;-74
2022/01/29 07:00:11;;;;;;;;;;;;;;;10.70;80.49;101726.13;6244592;22;19907;-76
2022/01/29 07:02:37;;;;;;;;;;;;;;;10.71;80.31;101733.28;6245477;22;19907;-75
2022/01/29 07:05:08;;;;;;;;;;;;;;;10.69;79.90;101714.34;6246623;22;19915;-75
2022/01/29 07:07:34;;;;;;;;;;;;;;;10.66;79.57;101706.63;6274937;22;20370;-74
2022/01/29 07:09:59;;;;;;;;;;;;;;;10.65;80.05;101718.63;6272840;22;19916;-75
2022/01/29 07:12:25;;;;;;;;;;;;;;;10.65;79.58;101707.69;6273639;22;19908;-74
2022/01/29 07:14:51;;;;;;;;;;;;;;;10.66;79.41;101706.63;6247063;22;19903;-75
2022/01/29 07:17:17;;;;;;;;;;;;;;;10.64;79.39;101711.47;6244015;22;19910;-74
2022/01/29 07:19:46;;;;;;;;;;;;;;;10.56;80.00;101701.72;6246847;22;19911;-75
2022/01/29 07:22:11;;;;;;;;;;;;;;;10.56;79.87;101709.91;6272492;22;19938;-75
2022/01/29 07:24:37;;;;;;;;;;;;;;;10.63;79.59;101710.66;6273561;22;19907;-73
2022/01/29 07:27:03;;;;;;;;;;;;;;;10.69;79.65;101721.72;6247351;22;19907;-74
2022/01/29 07:29:28;;;;;;;;;;;;;;;10.52;79.57;101730.59;6246615;22;19903;-75
2022/01/29 07:31:55;;;;;;;;;;;;;;;10.58;79.17;101717.91;6247151;22;20314;-75
2022/01/29 07:34:21;;;;;;;;;;;;;;;10.57;79.43;101728.00;6270865;22;19973;-74
2022/01/29 07:36:46;;;;;;;;;;;;;;;10.62;79.39;101722.66;6247168;22;19907;-75
2022/01/29 07:39:11;;;;;;;;;;;;;;;10.68;78.70;101718.16;6245197;22;19911;-74
2022/01/29 07:41:37;;;;;;;;;;;;;;;10.70;79.23;101726.13;6245768;22;19982;-73
2022/01/29 07:44:05;;;;;;;;;;;;;;;10.68;79.76;101731.00;6223473;22;19977;-76
2022/01/29 07:46:30;;;;;;;;;;;;;;;10.64;79.18;101717.81;6224744;22;19907;-75
2022/01/29 07:48:59;;;;;;;;;;;;;;;10.63;79.27;101721.59;6250374;22;19950;-73
2022/01/29 07:51:24;;;;;;;;;;;;;;;10.68;79.76;101722.81;6251064;22;19903;-76
2022/01/29 07:53:52;;;;;;;;;;;;;;;10.64;79.63;101727.88;6263109;22;20306;-74
2022/01/29 07:56:20;;;;;;;;;;;;;;;10.75;79.10;101739.94;6285259;22;19994;-76
2022/01/29 07:58:45;;;;;;;;;;;;;;;10.64;79.74;101727.88;6236389;22;20333;-75
2022/01/29 08:01:12;;;;;;;;;;;;;;;10.64;79.92;101725.16;6285927;22;19955;-76
2022/01/29 08:03:37;;;;;;;;;;;;;;;10.62;79.52;101725.38;6280060;22;19908;-76
2022/01/29 08:06:02;;;;;;;;;;;;;;;10.64;80.05;101731.47;6275826;22;20300;-76
2022/01/29 08:08:27;;;;;;;;;;;;;;;10.63;79.47;101727.06;6247142;22;19911;-73
2022/01/29 08:10:53;;;;;;;;;;;;;;;10.64;79.47;101733.38;6248654;22;19907;-73
2022/01/29 08:13:18;;;;;;;;;;;;;;;10.59;79.74;101747.75;6275947;22;20310;-77
2022/01/29 08:15:43;;;;;;;;;;;;;;;10.58;79.95;101746.06;6217907;22;19922;-73
2022/01/29 08:18:09;;;;;;;;;;;;;;;10.70;79.90;101753.47;6248411;22;20002;-76
2022/01/29 08:20:34;;;;;;;;;;;;;;;10.78;79.91;101739.47;6273146;22;19903;-75
2022/01/29 08:23:05;;;;;;;;;;;;;;;10.71;79.02;101755.16;6246338;22;19950;-77
2022/01/29 08:25:30;;;;;;;;;;;;;;;10.79;79.42;101752.06;6247171;22;19961;-76
2022/01/29 08:27:55;;;;;;;;;;;;;;;10.88;79.19;101761.63;6223696;22;19907;-75
2022/01/29 08:30:20;;;;;;;;;;;;;;;10.98;78.96;101756.41;6275429;22;19907;-76
2022/01/29 08:32:46;;;;;;;;;;;;;;;10.96;78.65;101758.50;6248250;22;19961;-78
2022/01/29 08:35:14;;;;;;;;;;;;;;;10.96;78.47;101780.41;6275024;22;20297;-76
2022/01/29 08:37:39;;;;;;;;;;;;;;;11.02;78.10;101761.38;6247760;22;20457;-76
2022/01/29 08:40:05;;;;;;;;;;;;;;;11.06;78.03;101752.47;6274945;22;19903;-77
2022/01/29 08:42:31;;;;;;;;;;;;;;;10.98;77.82;101767.34;6275779;22;19910;-78
2022/01/29 08:44:58;;;;;;;;;;;;;;;11.10;77.87;101753.66;6223899;22;19911;-78
2022/01/29 08:47:24;;;;;;;;;;;;;;;11.13;77.13;101768.78;6248439;22;20306;-76
2022/01/29 08:49:49;;;;;;;;;;;;;;;11.16;76.81;101758.19;6276216;22;19922;-78
2022/01/29 08:52:14;;;;;;;;;;;;;;;11.16;77.04;101752.72;6251421;22;19914;-78
2022/01/29 08:54:39;;;;;;;;;;;;;;;11.13;77.42;101753.19;6250609;22;19910;-77
2022/01/29 08:57:05;;;;;;;;;;;;;;;11.14;76.54;101774.03;6246809;22;19911;-74
2022/01/29 08:59:30;;;;;;;;;;;;;;;11.19;77.05;101762.34;6272613;22;19907;-73
2022/01/29 09:01:55;;;;;;;;;;;;;;;11.18;76.43;101767.00;6244313;22;19909;-74
2022/01/29 09:04:21;;;;;;;;;;;;;;;11.29;77.02;101770.00;6271582;22;19986;-73
2022/01/29 09:06:46;;;;;;;;;;;;;;;11.28;76.85;101777.34;6244595;22;19911;-73
2022/01/29 09:09:11;;;;;;;;;;;;;;;11.31;76.62;101776.03;6220130;22;20318;-74
2022/01/29 09:11:37;;;;;;;;;;;;;;;11.27;76.39;101772.13;6273458;22;19916;-73
2022/01/29 09:14:02;;;;;;;;;;;;;;;11.29;76.79;101773.56;6270682;22;20381;-74
2022/01/29 09:17:00;;;;;;;;;;;;;;;11.33;76.09;101769.28;6220829;22;20215;-74
2022/01/29 09:19:30;;;;;;;;;;;;;;;11.40;76.14;101760.91;6247857;22;20272;-74
2022/01/29 09:21:55;;;;;;;;;;;;;;;11.37;76.16;101758.66;6215050;22;20268;-76
2022/01/29 09:24:21;;;;;;;;;;;;;;;11.47;75.50;101747.09;6272254;22;19902;-73
2022/01/29 09:26:51;;;;;;;;;;;;;;;11.61;75.90;101751.25;6272283;22;19918;-74
2022/01/29 09:29:17;;;;;;;;;;;;;;;11.60;75.39;101757.81;6270030;22;20271;-75
2022/01/29 09:31:42;;;;;;;;;;;;;;;11.56;74.68;101750.31;6218128;22;19946;-74
2022/01/29 09:34:08;;;;;;;;;;;;;;;11.56;74.65;101747.56;6246822;22;20244;-74
2022/01/29 09:36:33;;;;;;;;;;;;;;;11.56;74.60;101751.13;6272220;22;20341;-74
2022/01/29 09:38:59;;;;;;;;;;;;;;;11.53;75.19;101729.72;6242330;22;19911;-75
2022/01/29 09:41:28;;;;;;;;;;;;;;;11.58;74.32;101732.56;6272698;22;19926;-76
2022/01/29 09:43:54;;;;;;;;;;;;;;;11.62;73.94;101733.75;6244831;22;19907;-75
2022/01/29 09:46:20;;;;;;;;;;;;;;;11.68;74.25;101757.44;6273429;22;19926;-77
2022/01/29 09:48:45;;;;;;;;;;;;;;;11.80;73.92;101767.56;6274123;22;19903;-74
2022/01/29 09:51:14;;;;;;;;;;;;;;;11.86;73.82;101767.41;6246062;22;19965;-76
2022/01/29 09:53:43;;;;;;;;;;;;;;;11.94;73.24;101766.22;6275019;22;19929;-78
2022/01/29 09:56:17;;;;;;;;;;;;;;;11.99;72.75;101763.59;6225102;22;19911;-77
2022/01/29 09:58:45;;;;;;;;;;;;;;;12.08;72.96;101774.19;6247563;22;19930;-77
2022/01/29 10:01:11;;;;;;;;;;;;;;;12.09;71.94;101775.84;6247844;22;19934;-79
2022/01/29 10:03:40;;;;;;;;;;;;;;;12.12;72.29;101769.88;6246688;22;19903;-77
2022/01/29 10:06:12;;;;;;;;;;;;;;;12.29;71.50;101780.91;6275906;22;19903;-76
2022/01/29 10:08:46;;;;;;;;;;;;;;;12.55;71.04;101783.03;6247068;22;19934;-77
2022/01/29 10:11:20;;;;;;;;;;;;;;;13.02;69.52;101772.88;6252105;22;19914;-79
2022/01/29 10:13:59;;;;;;;;;;;;;;;;;;;;;
2022/01/29 10:17:02;;;;;;;;;;;;;;;13.42;66.36;101745.25;6253376;22;20296;-80
2022/01/29 10:20:04;;;;;;;;;;;;;;;;;;;;;
2022/01/29 10:22:51;;;;;;;;;;;;;;;13.95;64.73;101766.81;6271838;22;20050;-80
2022/01/29 10:25:33;;;;;;;;;;;;;;;13.79;64.23;101785.88;6250604;22;19903;-78
2022/01/29 10:28:28;;;;;;;;;;;;;;;13.55;65.63;101788.03;6278123;22;19907;-78
2022/01/29 10:31:07;;;;;;;;;;;;;;;13.17;66.48;101814.34;6258468;22;19914;-80
2022/01/29 10:33:42;;;;;;;;;;;;;;;13.01;67.60;101817.88;6250887;22;19907;-80
2022/01/29 10:36:09;;;;;;;;;;;;;;;12.94;67.62;101818.06;6276820;22;20318;-79
2022/01/29 10:38:43;;;;;;;;;;;;;;;12.86;67.56;101823.94;6251753;22;19984;-78
2022/01/29 10:41:21;;;;;;;;;;;;;;;;;;;;;
2022/01/29 10:44:02;;;;;;;;;;;;;;;12.64;68.21;101813.66;6278693;22;19977;-77
2022/01/29 10:46:28;;;;;;;;;;;;;;;12.54;68.74;101828.06;6260758;22;19953;-77
2022/01/29 10:49:05;;;;;;;;;;;;;;;12.50;69.57;101820.53;6257791;22;19930;-80
2022/01/29 10:51:32;;;;;;;;;;;;;;;12.62;68.98;101815.00;6257663;22;19976;-79
2022/01/29 10:54:19;;;;;;;;;;;;;;;12.73;69.00;101814.97;6254123;22;19915;-79
2022/01/29 10:57:30;;;;;;;;;;;;;;;;;;;;;
2022/01/29 11:03:57;;;;;;;;;;;;;;;;;;;;;
2022/01/29 11:06:39;;;;;;;;;;;;;;;14.03;66.14;101795.78;6134734;23;19940;-77
2022/01/29 11:15:28;;;;;;;;;;;;;;;;;;;;;
2022/01/29 11:21:37;;;;;;;;;;;;;;;;;;;;;
2022/01/29 11:24:04;;;;;;;;;;;;;;;17.37;52.51;101805.22;6124918;23;19983;-79
2022/01/29 11:26:58;;;;;;;;;;;;;;;17.99;51.83;101777.41;6166565;22;20331;-82
2022/01/29 11:30:06;;;;;;;;;;;;;;;18.08;50.04;101778.50;6269949;22;19981;-78
2022/01/29 11:32:40;;;;;;;;;;;;;;;16.99;51.55;101775.09;6249938;22;19918;-77
2022/01/29 11:35:19;;;;;;;;;;;;;;;15.76;54.92;101802.34;6226798;22;19907;-77
2022/01/29 11:40:44;;;;;;;;;;;;;;;13.71;62.33;101794.56;6256440;22;19922;-79
2022/01/29 11:43:15;;;;;;;;;;;;;;;13.27;64.17;101772.44;6247968;22;19929;-79
2022/01/29 11:46:20;;;;;;;;;;;;;;;;;;;;;
2022/01/29 11:51:51;;;;;;;;;;;;;;;12.93;66.19;101773.28;6123480;23;19996;-75
2022/01/29 11:54:18;;;;;;;;;;;;;;;13.02;65.98;101751.72;6258185;22;20333;-76
2022/01/29 11:57:14;;;;;;;;;;;;;;;13.14;66.31;101753.56;6276478;22;19903;-77
2022/01/29 12:00:04;;;;;;;;;;;;;;;13.31;65.71;101754.38;6276154;22;19903;-80
2022/01/29 12:02:49;;;;;;;;;;;;;;;13.52;65.20;101725.31;6274970;22;20310;-82
2022/01/29 12:05:22;;;;;;;;;;;;;;;13.60;64.81;101724.88;6250214;22;19957;-79
2022/01/29 12:08:36;;;;;;;;;;;;;;;13.76;64.33;101728.63;6253464;22;19933;-81
2022/01/29 12:11:41;;;;;;;;;;;;;;;;;;;;;
2022/01/29 12:14:22;;;;;;;;;;;;;;;14.58;62.42;101736.13;6103879;23;20034;-75
2022/01/29 12:17:07;;;;;;;;;;;;;;;14.56;61.71;101741.06;6093828;23;19912;-76
2022/01/29 12:19:54;;;;;;;;;;;;;;;;;;;;;
2022/01/29 12:22:48;;;;;;;;;;;;;;;;;;;;;
2022/01/29 12:28:17;;;;;;;;;;;;;;;13.60;66.77;101713.88;6260716;22;19910;-79
2022/01/29 12:30:53;;;;;;;;;;;;;;;;;;;;;
2022/01/29 12:33:24;;;;;;;;;;;;;;;13.68;65.58;101687.03;6251556;22;20382;-79
2022/01/29 12:35:59;;;;;;;;;;;;;;;13.83;65.58;101672.63;6253811;22;19946;-79
2022/01/29 12:38:39;;;;;;;;;;;;;;;;;;;;;
2022/01/29 12:41:06;;;;;;;;;;;;;;;14.05;64.76;101659.69;6277823;22;19970;-79
2022/01/29 12:44:08;;;;;;;;;;;;;;;14.26;64.38;101668.13;6278152;22;19938;-79
2022/01/29 12:46:37;;;;;;;;;;;;;;;14.09;63.90;101655.34;6273356;22;19903;-77
2022/01/29 13:05:02;;;;;;;;;;;;;;;14.22;64.14;101680.75;6213179;22;20385;-79
2022/01/29 13:07:34;;;;;;;;;;;;;;;14.38;64.58;101663.28;6189584;23;19908;-80
2022/01/29 13:10:07;;;;;;;;;;;;;;;14.45;62.85;101652.88;6216731;23;20365;-78
2022/01/29 13:12:45;;;;;;;;;;;;;;;14.26;63.45;101665.38;6190368;23;19915;-78
2022/01/29 13:15:14;;;;;;;;;;;;;;;13.95;64.80;101659.56;6217131;23;20435;-80
2022/01/29 13:17:42;;;;;;;;;;;;;;;13.70;65.79;101655.44;6189107;23;19983;-77
2022/01/29 13:20:08;;;;;;;;;;;;;;;13.62;66.63;101664.13;6219684;23;20227;-79
2022/01/29 13:22:33;;;;;;;;;;;;;;;13.57;66.77;101647.59;6190768;23;19907;-78
2022/01/29 13:25:01;;;;;;;;;;;;;;;13.61;66.70;101660.56;6216673;23;19908;-78
2022/01/29 13:27:30;;;;;;;;;;;;;;;13.48;66.69;101635.38;6223146;23;19930;-77
2022/01/29 13:30:18;;;;;;;;;;;;;;;13.33;67.19;101669.81;6225260;23;19904;-78
2022/01/29 13:32:45;;;;;;;;;;;;;;;13.32;67.72;101626.13;6226412;23;19911;-77
2022/01/29 13:35:21;;;;;;;;;;;;;;;13.31;68.03;101617.03;6226483;23;19911;-78
2022/01/29 13:37:50;;;;;;;;;;;;;;;13.26;67.69;101625.22;6228580;23;19908;-77
2022/01/29 13:40:20;;;;;;;;;;;;;;;13.36;68.37;101630.88;6232138;23;19903;-78
2022/01/29 13:43:11;;;;;;;;;;;;;;;13.56;67.21;101635.75;6180102;23;19908;-78
2022/01/29 13:45:51;;;;;;;;;;;;;;;13.53;67.58;101624.47;6207957;23;19903;-78
2022/01/29 13:48:17;;;;;;;;;;;;;;;13.62;67.17;101611.91;6189317;23;19904;-77
2022/01/29 13:50:43;;;;;;;;;;;;;;;13.76;67.03;101591.19;6190272;23;19904;-80
2022/01/29 13:53:09;;;;;;;;;;;;;;;14.33;65.00;101599.97;6189659;23;19908;-77
2022/01/29 13:55:36;;;;;;;;;;;;;;;14.54;64.25;101633.16;6188844;23;19934;-79
2022/01/29 13:58:03;;;;;;;;;;;;;;;14.73;63.79;101601.38;6187486;23;19915;-75
2022/01/29 14:00:51;;;;;;;;;;;;;;;14.87;62.92;101570.66;6187313;23;19907;-74
2022/01/29 14:03:22;;;;;;;;;;;;;;;14.64;63.65;101589.22;6185634;23;19904;-73
2022/01/29 14:05:48;;;;;;;;;;;;;;;14.81;63.18;101587.13;6204720;23;19916;-74
2022/01/29 14:08:17;;;;;;;;;;;;;;;15.35;61.18;101588.75;6211824;23;19943;-81
2022/01/29 14:10:42;;;;;;;;;;;;;;;15.15;61.27;101589.50;6217000;23;20331;-77